sensor_id;sensor_type;location;lat;lon;timestamp;pressure;altitude;pressure_sealevel;temperature;humidity
65666;BME280;52365;47.464;18.976;2023-02-04T00:00:34;99428.22;;;5.71;68.77
65666;BME280;52365;47.464;18.976;2023-02-04T00:01:12;99423.94;;;5.73;68.94
65666;BME280;52365;47.464;18.976;2023-02-04T00:01:48;99428.84;;;5.75;68.84
65666;BME280;52365;47.464;18.976;2023-02-04T00:02:24;99427.78;;;5.72;68.92
65666;BME280;52365;47.464;18.976;2023-02-04T00:03:00;99426.16;;;5.75;69.08
65666;BME280;52365;47.464;18.976;2023-02-04T00:03:36;99436.56;;;5.73;69.22
65666;BME280;52365;47.464;18.976;2023-02-04T00:04:12;99428.53;;;5.73;69.23
65666;BME280;52365;47.464;18.976;2023-02-04T00:04:49;99429.19;;;5.77;68.85
65666;BME280;52365;47.464;18.976;2023-02-04T00:05:25;99421.81;;;5.81;68.73
65666;BME280;52365;47.464;18.976;2023-02-04T00:06:01;99423.72;;;5.80;68.76
65666;BME280;52365;47.464;18.976;2023-02-04T00:06:37;99423.09;;;5.76;69.16
65666;BME280;52365;47.464;18.976;2023-02-04T00:07:13;99433.78;;;5.76;69.19
65666;BME280;52365;47.464;18.976;2023-02-04T00:07:49;99427.44;;;5.70;68.95
65666;BME280;52365;47.464;18.976;2023-02-04T00:08:25;99425.00;;;5.63;68.86
65666;BME280;52365;47.464;18.976;2023-02-04T00:09:01;99431.41;;;5.78;68.80
65666;BME280;52365;47.464;18.976;2023-02-04T00:09:37;99421.59;;;5.75;68.88
65666;BME280;52365;47.464;18.976;2023-02-04T00:10:13;99428.84;;;5.88;68.64
65666;BME280;52365;47.464;18.976;2023-02-04T00:10:49;99424.38;;;5.85;68.64
65666;BME280;52365;47.464;18.976;2023-02-04T00:11:25;99428.75;;;5.78;68.92
65666;BME280;52365;47.464;18.976;2023-02-04T00:12:01;99425.53;;;5.84;68.68
65666;BME280;52365;47.464;18.976;2023-02-04T00:12:38;99430.03;;;5.74;68.66
65666;BME280;52365;47.464;18.976;2023-02-04T00:13:14;99433.78;;;5.76;68.86
65666;BME280;52365;47.464;18.976;2023-02-04T00:13:50;99427.47;;;5.83;68.85
65666;BME280;52365;47.464;18.976;2023-02-04T00:14:26;99431.03;;;5.93;68.72
65666;BME280;52365;47.464;18.976;2023-02-04T00:15:03;99428.97;;;5.97;68.59
65666;BME280;52365;47.464;18.976;2023-02-04T00:15:39;99428.56;;;5.98;68.32
65666;BME280;52365;47.464;18.976;2023-02-04T00:16:15;99422.75;;;5.87;68.46
65666;BME280;52365;47.464;18.976;2023-02-04T00:16:51;99433.34;;;5.91;68.85
65666;BME280;52365;47.464;18.976;2023-02-04T00:17:27;99429.41;;;5.95;68.34
65666;BME280;52365;47.464;18.976;2023-02-04T00:18:03;99436.34;;;6.05;67.98
65666;BME280;52365;47.464;18.976;2023-02-04T00:18:41;99431.03;;;5.93;67.88
65666;BME280;52365;47.464;18.976;2023-02-04T00:19:17;99422.25;;;5.79;68.60
65666;BME280;52365;47.464;18.976;2023-02-04T00:19:54;99411.19;;;5.90;68.99
65666;BME280;52365;47.464;18.976;2023-02-04T00:20:30;99421.56;;;5.88;68.76
65666;BME280;52365;47.464;18.976;2023-02-04T00:21:06;99415.59;;;5.97;68.54
65666;BME280;52365;47.464;18.976;2023-02-04T00:21:42;99423.50;;;5.88;68.53
65666;BME280;52365;47.464;18.976;2023-02-04T00:22:18;99425.56;;;5.71;69.57
65666;BME280;52365;47.464;18.976;2023-02-04T00:22:55;99429.59;;;5.88;69.28
65666;BME280;52365;47.464;18.976;2023-02-04T00:23:31;99430.03;;;5.87;68.95
65666;BME280;52365;47.464;18.976;2023-02-04T00:24:07;99431.97;;;5.73;69.53
65666;BME280;52365;47.464;18.976;2023-02-04T00:24:44;99432.28;;;5.75;69.57
65666;BME280;52365;47.464;18.976;2023-02-04T00:25:24;99424.69;;;5.87;69.13
65666;BME280;52365;47.464;18.976;2023-02-04T00:26:00;99437.63;;;5.75;69.65
65666;BME280;52365;47.464;18.976;2023-02-04T00:26:36;99430.78;;;5.74;69.35
65666;BME280;52365;47.464;18.976;2023-02-04T00:27:13;99431.97;;;5.73;69.30
65666;BME280;52365;47.464;18.976;2023-02-04T00:27:49;99427.03;;;5.85;69.42
65666;BME280;52365;47.464;18.976;2023-02-04T00:28:25;99427.44;;;5.70;69.40
65666;BME280;52365;47.464;18.976;2023-02-04T00:29:01;99428.84;;;5.75;69.53
65666;BME280;52365;47.464;18.976;2023-02-04T00:29:37;99433.88;;;5.73;69.77
65666;BME280;52365;47.464;18.976;2023-02-04T00:30:13;99423.38;;;5.66;69.73
65666;BME280;52365;47.464;18.976;2023-02-04T00:30:49;99436.75;;;5.78;69.53
65666;BME280;52365;47.464;18.976;2023-02-04T00:31:25;99430.50;;;5.98;69.01
65666;BME280;52365;47.464;18.976;2023-02-04T00:32:02;99430.66;;;5.91;69.01
65666;BME280;52365;47.464;18.976;2023-02-04T00:32:38;99438.28;;;5.79;69.01
65666;BME280;52365;47.464;18.976;2023-02-04T00:33:14;99423.81;;;5.90;69.31
65666;BME280;52365;47.464;18.976;2023-02-04T00:33:50;99430.16;;;5.96;69.23
65666;BME280;52365;47.464;18.976;2023-02-04T00:34:26;99426.81;;;5.79;69.42
65666;BME280;52365;47.464;18.976;2023-02-04T00:35:02;99430.78;;;5.74;69.69
65666;BME280;52365;47.464;18.976;2023-02-04T00:35:39;99435.59;;;5.67;69.65
65666;BME280;52365;47.464;18.976;2023-02-04T00:36:15;99423.81;;;5.64;69.60
65666;BME280;52365;47.464;18.976;2023-02-04T00:36:51;99422.25;;;5.79;69.62
65666;BME280;52365;47.464;18.976;2023-02-04T00:37:27;99432.50;;;5.68;69.67
65666;BME280;52365;47.464;18.976;2023-02-04T00:38:04;99436.75;;;5.66;69.69
65666;BME280;52365;47.464;18.976;2023-02-04T00:38:40;99428.00;;;5.65;69.71
65666;BME280;52365;47.464;18.976;2023-02-04T00:39:16;99415.47;;;5.75;69.71
65666;BME280;52365;47.464;18.976;2023-02-04T00:39:52;99428.00;;;5.78;69.28
65666;BME280;52365;47.464;18.976;2023-02-04T00:40:28;99421.69;;;5.85;68.93
65666;BME280;52365;47.464;18.976;2023-02-04T00:41:04;99419.66;;;5.89;68.79
65666;BME280;52365;47.464;18.976;2023-02-04T00:41:41;99415.19;;;5.98;68.72
65666;BME280;52365;47.464;18.976;2023-02-04T00:42:17;99430.50;;;5.98;68.55
65666;BME280;52365;47.464;18.976;2023-02-04T00:42:53;99418.59;;;5.99;68.48
65666;BME280;52365;47.464;18.976;2023-02-04T00:43:29;99424.16;;;5.92;68.43
65666;BME280;52365;47.464;18.976;2023-02-04T00:44:06;99423.94;;;5.86;68.53
65666;BME280;52365;47.464;18.976;2023-02-04T00:44:42;99419.31;;;5.87;68.41
65666;BME280;52365;47.464;18.976;2023-02-04T00:45:18;99429.94;;;5.77;68.56
65666;BME280;52365;47.464;18.976;2023-02-04T00:45:54;99428.44;;;5.76;68.87
65666;BME280;52365;47.464;18.976;2023-02-04T00:46:30;99419.66;;;5.89;68.76
65666;BME280;52365;47.464;18.976;2023-02-04T00:47:06;99414.63;;;5.91;68.55
65666;BME280;52365;47.464;18.976;2023-02-04T00:47:42;99424.50;;;5.94;68.44
65666;BME280;52365;47.464;18.976;2023-02-04T00:48:18;99425.22;;;5.81;69.03
65666;BME280;52365;47.464;18.976;2023-02-04T00:48:54;99425.53;;;5.84;68.85
65666;BME280;52365;47.464;18.976;2023-02-04T00:49:32;99430.78;;;5.74;68.85
65666;BME280;52365;47.464;18.976;2023-02-04T00:50:09;99418.28;;;5.84;68.96
65666;BME280;52365;47.464;18.976;2023-02-04T00:50:45;99425.88;;;5.86;68.77
65666;BME280;52365;47.464;18.976;2023-02-04T00:51:21;99420.50;;;5.86;68.99
65666;BME280;52365;47.464;18.976;2023-02-04T00:51:57;99421.91;;;5.90;68.80
65666;BME280;52365;47.464;18.976;2023-02-04T00:52:34;99416.47;;;5.94;68.84
65666;BME280;52365;47.464;18.976;2023-02-04T00:53:10;99422.13;;;5.96;68.60
65666;BME280;52365;47.464;18.976;2023-02-04T00:53:46;99431.00;;;5.80;68.60
65666;BME280;52365;47.464;18.976;2023-02-04T00:54:22;99427.03;;;5.85;68.50
65666;BME280;52365;47.464;18.976;2023-02-04T00:54:58;99420.41;;;5.89;68.42
65666;BME280;52365;47.464;18.976;2023-02-04T00:55:34;99423.81;;;5.90;68.49
65666;BME280;52365;47.464;18.976;2023-02-04T00:56:10;99423.84;;;6.02;68.33
65666;BME280;52365;47.464;18.976;2023-02-04T00:56:46;99435.59;;;6.05;68.07
65666;BME280;52365;47.464;18.976;2023-02-04T00:57:22;99420.44;;;6.02;67.84
65666;BME280;52365;47.464;18.976;2023-02-04T00:57:59;99425.00;;;5.89;68.09
65666;BME280;52365;47.464;18.976;2023-02-04T00:58:35;99419.66;;;5.89;68.34
65666;BME280;52365;47.464;18.976;2023-02-04T00:59:11;99423.50;;;5.88;68.42
65666;BME280;52365;47.464;18.976;2023-02-04T00:59:47;99422.22;;;5.92;68.21
65666;BME280;52365;47.464;18.976;2023-02-04T01:00:23;99425.44;;;6.00;68.13
65666;BME280;52365;47.464;18.976;2023-02-04T01:00:59;99423.09;;;6.02;68.34
65666;BME280;52365;47.464;18.976;2023-02-04T01:01:36;99424.41;;;5.97;68.54
65666;BME280;52365;47.464;18.976;2023-02-04T01:02:12;99423.59;;;6.10;68.37
65666;BME280;52365;47.464;18.976;2023-02-04T01:02:48;99421.16;;;5.90;68.23
65666;BME280;52365;47.464;18.976;2023-02-04T01:03:24;99415.09;;;6.02;68.07
65666;BME280;52365;47.464;18.976;2023-02-04T01:04:00;99416.47;;;5.94;67.91
65666;BME280;52365;47.464;18.976;2023-02-04T01:04:36;99413.91;;;6.03;67.98
65666;BME280;52365;47.464;18.976;2023-02-04T01:05:12;99417.88;;;5.98;67.84
65666;BME280;52365;47.464;18.976;2023-02-04T01:05:48;99417.88;;;5.98;67.95
65666;BME280;52365;47.464;18.976;2023-02-04T01:06:25;99408.53;;;6.03;68.01
65666;BME280;52365;47.464;18.976;2023-02-04T01:07:01;99419.25;;;6.03;67.79
65666;BME280;52365;47.464;18.976;2023-02-04T01:07:37;99411.97;;;6.03;67.82
65666;BME280;52365;47.464;18.976;2023-02-04T01:08:13;99406.72;;;6.00;67.97
65666;BME280;52365;47.464;18.976;2023-02-04T01:08:49;99415.16;;;5.86;68.21
65666;BME280;52365;47.464;18.976;2023-02-04T01:09:25;99411.31;;;5.87;68.35
65666;BME280;52365;47.464;18.976;2023-02-04T01:10:02;99405.09;;;5.90;68.14
65666;BME280;52365;47.464;18.976;2023-02-04T01:10:38;99405.78;;;5.94;68.20
65666;BME280;52365;47.464;18.976;2023-02-04T01:11:15;99404.47;;;6.11;67.85
65666;BME280;52365;47.464;18.976;2023-02-04T01:11:51;99410.38;;;6.06;67.79
65666;BME280;52365;47.464;18.976;2023-02-04T01:12:27;99404.56;;;6.20;67.35
65666;BME280;52365;47.464;18.976;2023-02-04T01:13:03;99423.50;;;6.13;67.68
65666;BME280;52365;47.464;18.976;2023-02-04T01:13:39;99406.31;;;6.01;67.90
65666;BME280;52365;47.464;18.976;2023-02-04T01:14:15;99415.06;;;6.15;67.59
65666;BME280;52365;47.464;18.976;2023-02-04T01:14:53;99411.03;;;5.97;67.56
65666;BME280;52365;47.464;18.976;2023-02-04T01:15:29;99408.34;;;5.97;67.94
65666;BME280;52365;47.464;18.976;2023-02-04T01:16:05;99407.91;;;5.99;67.75
65666;BME280;52365;47.464;18.976;2023-02-04T01:16:41;99402.56;;;5.99;67.69
65666;BME280;52365;47.464;18.976;2023-02-04T01:17:17;99405.22;;;5.99;67.97
65666;BME280;52365;47.464;18.976;2023-02-04T01:17:54;99416.47;;;6.07;68.03
65666;BME280;52365;47.464;18.976;2023-02-04T01:18:30;99411.12;;;6.07;68.23
65666;BME280;52365;47.464;18.976;2023-02-04T01:19:07;99409.72;;;6.02;67.97
65666;BME280;52365;47.464;18.976;2023-02-04T01:19:43;99409.41;;;6.00;67.80
65666;BME280;52365;47.464;18.976;2023-02-04T01:20:19;99401.25;;;5.91;67.92
65666;BME280;52365;47.464;18.976;2023-02-04T01:20:55;99405.09;;;5.90;68.07
65666;BME280;52365;47.464;18.976;2023-02-04T01:21:31;99403.50;;;5.92;67.84
65666;BME280;52365;47.464;18.976;2023-02-04T01:22:07;99405.84;;;6.16;67.54
65666;BME280;52365;47.464;18.976;2023-02-04T01:22:43;99413.53;;;6.26;67.03
65666;BME280;52365;47.464;18.976;2023-02-04T01:23:19;99405.59;;;6.23;67.27
65666;BME280;52365;47.464;18.976;2023-02-04T01:23:55;99409.91;;;6.20;67.10
65666;BME280;52365;47.464;18.976;2023-02-04T01:24:31;99410.56;;;6.12;67.35
65666;BME280;52365;47.464;18.976;2023-02-04T01:25:07;99403.47;;;6.18;67.49
65666;BME280;52365;47.464;18.976;2023-02-04T01:25:43;99401.41;;;6.35;67.09
65666;BME280;52365;47.464;18.976;2023-02-04T01:26:20;99411.47;;;6.30;66.93
65666;BME280;52365;47.464;18.976;2023-02-04T01:26:56;99404.84;;;6.22;67.05
65666;BME280;52365;47.464;18.976;2023-02-04T01:27:32;99416.13;;;6.04;67.49
65666;BME280;52365;47.464;18.976;2023-02-04T01:28:08;99417.41;;;6.13;67.68
65666;BME280;52365;47.464;18.976;2023-02-04T01:28:44;99411.25;;;6.38;67.20
65666;BME280;52365;47.464;18.976;2023-02-04T01:29:21;99408.88;;;6.40;66.95
65666;BME280;52365;47.464;18.976;2023-02-04T01:29:57;99414.97;;;6.40;66.75
65666;BME280;52365;47.464;18.976;2023-02-04T01:30:33;99407.53;;;6.22;67.04
65666;BME280;52365;47.464;18.976;2023-02-04T01:31:09;99404.75;;;6.26;66.87
65666;BME280;52365;47.464;18.976;2023-02-04T01:31:45;99412.19;;;6.44;66.72
65666;BME280;52365;47.464;18.976;2023-02-04T01:32:21;99398.03;;;6.21;66.72
65666;BME280;52365;47.464;18.976;2023-02-04T01:32:57;99415.28;;;6.08;66.79
65666;BME280;52365;47.464;18.976;2023-02-04T01:33:34;99407.91;;;5.99;67.12
65666;BME280;52365;47.464;18.976;2023-02-04T01:34:10;99401.63;;;5.93;67.37
65666;BME280;52365;47.464;18.976;2023-02-04T01:34:46;99414.50;;;6.20;67.11
65666;BME280;52365;47.464;18.976;2023-02-04T01:35:22;99405.91;;;6.38;66.73
65666;BME280;52365;47.464;18.976;2023-02-04T01:35:58;99404.16;;;6.44;66.25
65666;BME280;52365;47.464;18.976;2023-02-04T01:36:34;99403.94;;;6.51;66.34
65666;BME280;52365;47.464;18.976;2023-02-04T01:37:10;99416.94;;;6.62;66.04
65666;BME280;52365;47.464;18.976;2023-02-04T01:37:46;99402.19;;;6.57;66.17
65666;BME280;52365;47.464;18.976;2023-02-04T01:38:22;99406.97;;;6.62;65.93
65666;BME280;52365;47.464;18.976;2023-02-04T01:38:58;99404.78;;;6.48;65.77
65666;BME280;52365;47.464;18.976;2023-02-04T01:39:35;99412.31;;;6.40;66.13
65666;BME280;52365;47.464;18.976;2023-02-04T01:40:12;99405.03;;;6.41;66.58
65666;BME280;52365;47.464;18.976;2023-02-04T01:40:48;99415.13;;;6.37;66.51
65666;BME280;52365;47.464;18.976;2023-02-04T01:41:24;99408.50;;;6.28;66.79
65666;BME280;52365;47.464;18.976;2023-02-04T01:42:02;99404.75;;;6.26;66.75
65666;BME280;52365;47.464;18.976;2023-02-04T01:42:38;99404.56;;;6.20;66.99
65666;BME280;52365;47.464;18.976;2023-02-04T01:43:14;99410.00;;;6.17;66.99
65666;BME280;52365;47.464;18.976;2023-02-04T01:43:52;99409.47;;;6.22;67.03
65666;BME280;52365;47.464;18.976;2023-02-04T01:44:29;99412.75;;;6.39;67.27
65666;BME280;52365;47.464;18.976;2023-02-04T01:45:06;99405.28;;;6.34;66.98
65666;BME280;52365;47.464;18.976;2023-02-04T01:45:44;99414.97;;;6.40;66.57
65666;BME280;52365;47.464;18.976;2023-02-04T01:46:20;99409.41;;;6.47;66.31
65666;BME280;52365;47.464;18.976;2023-02-04T01:46:57;99407.03;;;6.49;66.41
65666;BME280;52365;47.464;18.976;2023-02-04T01:47:34;99413.56;;;6.48;66.02
65666;BME280;52365;47.464;18.976;2023-02-04T01:48:10;99409.81;;;6.59;66.28
65666;BME280;52365;47.464;18.976;2023-02-04T01:48:47;99412.78;;;6.61;66.07
65666;BME280;52365;47.464;18.976;2023-02-04T01:49:24;99405.78;;;6.41;66.00
65666;BME280;52365;47.464;18.976;2023-02-04T01:50:00;99417.94;;;6.20;66.21
65666;BME280;52365;47.464;18.976;2023-02-04T01:50:37;99417.13;;;6.45;66.05
65666;BME280;52365;47.464;18.976;2023-02-04T01:51:15;99420.69;;;6.64;65.80
65666;BME280;52365;47.464;18.976;2023-02-04T01:51:52;99418.28;;;6.44;65.57
65666;BME280;52365;47.464;18.976;2023-02-04T01:52:31;99406.53;;;6.42;65.81
65666;BME280;52365;47.464;18.976;2023-02-04T01:53:09;99412.78;;;6.61;65.74
65666;BME280;52365;47.464;18.976;2023-02-04T01:53:46;99410.72;;;6.43;65.78
65666;BME280;52365;47.464;18.976;2023-02-04T01:54:22;99416.34;;;6.45;65.68
65666;BME280;52365;47.464;18.976;2023-02-04T01:54:58;99413.47;;;6.52;65.54
65666;BME280;52365;47.464;18.976;2023-02-04T01:55:34;99419.94;;;6.29;66.39
65666;BME280;52365;47.464;18.976;2023-02-04T01:56:15;99422.19;;;6.30;67.06
65666;BME280;52365;47.464;18.976;2023-02-04T01:56:52;99416.38;;;6.32;67.00
65666;BME280;52365;47.464;18.976;2023-02-04T01:57:30;99418.03;;;6.29;66.62
65666;BME280;52365;47.464;18.976;2023-02-04T01:58:09;99428.81;;;6.39;66.28
65666;BME280;52365;47.464;18.976;2023-02-04T01:58:45;99415.66;;;6.19;66.26
65666;BME280;52365;47.464;18.976;2023-02-04T01:59:22;99414.97;;;6.40;66.09
65666;BME280;52365;47.464;18.976;2023-02-04T01:59:59;99413.06;;;6.41;65.77
65666;BME280;52365;47.464;18.976;2023-02-04T02:00:35;99422.03;;;6.47;66.00
65666;BME280;52365;47.464;18.976;2023-02-04T02:01:13;99406.28;;;6.49;66.18
65666;BME280;52365;47.464;18.976;2023-02-04T02:01:51;99413.75;;;6.54;65.64
65666;BME280;52365;47.464;18.976;2023-02-04T02:02:45;99420.84;;;6.48;65.59
65666;BME280;52365;47.464;18.976;2023-02-04T02:03:21;99414.50;;;6.33;66.24
65666;BME280;52365;47.464;18.976;2023-02-04T02:03:58;99422.59;;;6.42;65.86
65666;BME280;52365;47.464;18.976;2023-02-04T02:04:34;99421.72;;;6.45;65.64
65666;BME280;52365;47.464;18.976;2023-02-04T02:05:14;99419.38;;;6.47;65.95
65666;BME280;52365;47.464;18.976;2023-02-04T02:05:52;99426.09;;;6.51;65.68
65666;BME280;52365;47.464;18.976;2023-02-04T02:06:30;99417.47;;;6.69;65.37
65666;BME280;52365;47.464;18.976;2023-02-04T02:07:07;99423.50;;;6.61;64.92
65666;BME280;52365;47.464;18.976;2023-02-04T02:07:44;99420.19;;;6.56;64.80
65666;BME280;52365;47.464;18.976;2023-02-04T02:08:20;99414.87;;;6.44;64.84
65666;BME280;52365;47.464;18.976;2023-02-04T02:08:56;99418.91;;;6.48;64.86
65666;BME280;52365;47.464;18.976;2023-02-04T02:09:33;99424.94;;;6.40;65.10
65666;BME280;52365;47.464;18.976;2023-02-04T02:10:11;99417.66;;;6.40;65.06
65666;BME280;52365;47.464;18.976;2023-02-04T02:10:47;99418.44;;;6.63;64.94
65666;BME280;52365;47.464;18.976;2023-02-04T02:11:25;99428.00;;;6.64;64.68
65666;BME280;52365;47.464;18.976;2023-02-04T02:12:02;99422.19;;;6.65;64.62
65666;BME280;52365;47.464;18.976;2023-02-04T02:12:40;99418.66;;;6.68;64.64
65666;BME280;52365;47.464;18.976;2023-02-04T02:13:17;99415.19;;;6.80;64.59
65666;BME280;52365;47.464;18.976;2023-02-04T02:13:54;99419.53;;;6.87;64.38
65666;BME280;52365;47.464;18.976;2023-02-04T02:14:30;99422.56;;;6.54;64.60
65666;BME280;52365;47.464;18.976;2023-02-04T02:15:08;99421.06;;;6.41;64.97
65666;BME280;52365;47.464;18.976;2023-02-04T02:15:44;99421.84;;;6.41;65.32
65666;BME280;52365;47.464;18.976;2023-02-04T02:16:21;99420.84;;;6.48;65.40
65666;BME280;52365;47.464;18.976;2023-02-04T02:16:57;99425.34;;;6.51;65.20
65666;BME280;52365;47.464;18.976;2023-02-04T02:17:33;99424.88;;;6.65;64.76
65666;BME280;52365;47.464;18.976;2023-02-04T02:18:10;99432.00;;;6.81;64.72
65666;BME280;52365;47.464;18.976;2023-02-04T02:18:47;99418.28;;;6.79;64.16
65666;BME280;52365;47.464;18.976;2023-02-04T02:19:28;99418.88;;;6.61;64.33
65666;BME280;52365;47.464;18.976;2023-02-04T02:20:07;99419.75;;;6.58;64.75
65666;BME280;52365;47.464;18.976;2023-02-04T02:20:43;99411.25;;;6.38;65.11
65666;BME280;52365;47.464;18.976;2023-02-04T02:21:30;99429.00;;;6.44;65.08
65666;BME280;52365;47.464;18.976;2023-02-04T02:23:47;99422.97;;;6.53;65.18
65666;BME280;52365;47.464;18.976;2023-02-04T02:24:32;99404.69;;;6.51;65.89
65666;BME280;52365;47.464;18.976;2023-02-04T02:25:10;99418.00;;;6.42;65.65
65666;BME280;52365;47.464;18.976;2023-02-04T02:25:47;99419.03;;;6.45;65.53
65666;BME280;52365;47.464;18.976;2023-02-04T02:26:23;99412.59;;;6.55;65.19
65666;BME280;52365;47.464;18.976;2023-02-04T02:27:08;99418.19;;;6.48;65.32
65666;BME280;52365;47.464;18.976;2023-02-04T02:27:46;99418.69;;;6.55;65.29
65666;BME280;52365;47.464;18.976;2023-02-04T02:28:23;99409.88;;;6.68;64.96
65666;BME280;52365;47.464;18.976;2023-02-04T02:28:59;99419.44;;;6.56;64.96
65666;BME280;52365;47.464;18.976;2023-02-04T02:29:36;99417.00;;;6.49;64.98
65666;BME280;52365;47.464;18.976;2023-02-04T02:30:16;99416.72;;;6.34;65.27
65666;BME280;52365;47.464;18.976;2023-02-04T02:30:52;99424.94;;;6.40;65.33
65666;BME280;52365;47.464;18.976;2023-02-04T02:31:28;99413.38;;;6.43;65.38
65666;BME280;52365;47.464;18.976;2023-02-04T02:32:04;99422.59;;;6.42;65.33
65666;BME280;52365;47.464;18.976;2023-02-04T02:32:42;99409.56;;;6.66;65.39
65666;BME280;52365;47.464;18.976;2023-02-04T02:33:19;99414.09;;;6.56;65.18
65666;BME280;52365;47.464;18.976;2023-02-04T02:33:56;99410.16;;;6.48;65.14
65666;BME280;52365;47.464;18.976;2023-02-04T02:34:32;99413.69;;;6.45;65.45
65666;BME280;52365;47.464;18.976;2023-02-04T02:35:09;99420.63;;;6.55;65.27
65666;BME280;52365;47.464;18.976;2023-02-04T02:35:46;99417.13;;;6.45;65.45
65666;BME280;52365;47.464;18.976;2023-02-04T02:36:23;99412.72;;;6.51;65.20
65666;BME280;52365;47.464;18.976;2023-02-04T02:36:59;99425.09;;;6.58;64.90
65666;BME280;52365;47.464;18.976;2023-02-04T02:37:36;99412.72;;;6.51;64.93
65666;BME280;52365;47.464;18.976;2023-02-04T02:38:14;99420.13;;;6.47;65.34
65666;BME280;52365;47.464;18.976;2023-02-04T02:38:50;99421.72;;;6.45;65.25
65666;BME280;52365;47.464;18.976;2023-02-04T02:39:27;99414.28;;;6.62;64.98
65666;BME280;52365;47.464;18.976;2023-02-04T02:40:03;99415.28;;;6.55;65.33
65666;BME280;52365;47.464;18.976;2023-02-04T02:40:40;99414.37;;;6.58;65.39
65666;BME280;52365;47.464;18.976;2023-02-04T02:41:16;99411.28;;;6.60;65.11
65666;BME280;52365;47.464;18.976;2023-02-04T02:41:54;99421.00;;;6.66;64.79
65666;BME280;52365;47.464;18.976;2023-02-04T02:42:31;99415.19;;;6.46;64.90
65666;BME280;52365;47.464;18.976;2023-02-04T02:43:12;99405.72;;;6.54;65.26
65666;BME280;52365;47.464;18.976;2023-02-04T02:43:49;99411.16;;;6.41;65.39
65666;BME280;52365;47.464;18.976;2023-02-04T02:44:26;99403.91;;;6.64;65.25
65666;BME280;52365;47.464;18.976;2023-02-04T02:45:07;99400.69;;;6.56;65.27
65666;BME280;52365;47.464;18.976;2023-02-04T02:45:47;99412.22;;;6.31;65.81
65666;BME280;52365;47.464;18.976;2023-02-04T02:46:23;99405.50;;;6.26;66.20
65666;BME280;52365;47.464;18.976;2023-02-04T02:46:59;99408.66;;;6.47;66.18
65666;BME280;52365;47.464;18.976;2023-02-04T02:47:36;99404.16;;;6.44;65.77
65666;BME280;52365;47.464;18.976;2023-02-04T02:48:12;99413.53;;;6.61;65.48
65666;BME280;52365;47.464;18.976;2023-02-04T02:48:48;99419.13;;;6.76;65.22
65666;BME280;52365;47.464;18.976;2023-02-04T02:49:25;99400.63;;;6.47;65.30
65666;BME280;52365;47.464;18.976;2023-02-04T02:50:02;99408.28;;;6.57;65.19
65666;BME280;52365;47.464;18.976;2023-02-04T02:50:40;99400.38;;;6.54;65.40
65666;BME280;52365;47.464;18.976;2023-02-04T02:51:17;99415.66;;;6.66;64.99
65666;BME280;52365;47.464;18.976;2023-02-04T02:51:53;99402.94;;;6.79;64.76
65666;BME280;52365;47.464;18.976;2023-02-04T02:52:29;99411.25;;;6.72;64.62
65666;BME280;52365;47.464;18.976;2023-02-04T02:53:12;99406.69;;;6.60;64.96
65666;BME280;52365;47.464;18.976;2023-02-04T02:53:49;99406.13;;;6.65;65.24
65666;BME280;52365;47.464;18.976;2023-02-04T02:54:28;99415.75;;;6.63;65.52
65666;BME280;52365;47.464;18.976;2023-02-04T02:55:12;99409.56;;;6.66;65.41
65666;BME280;52365;47.464;18.976;2023-02-04T02:55:50;99411.53;;;6.52;65.50
65666;BME280;52365;47.464;18.976;2023-02-04T02:56:26;99416.28;;;6.36;66.06
65666;BME280;52365;47.464;18.976;2023-02-04T02:57:02;99404.09;;;6.35;66.25
65666;BME280;52365;47.464;18.976;2023-02-04T02:57:40;99410.59;;;6.46;66.66
65666;BME280;52365;47.464;18.976;2023-02-04T02:58:32;99403.97;;;6.38;66.39
65666;BME280;52365;47.464;18.976;2023-02-04T02:59:13;99404.78;;;6.48;66.38
65666;BME280;52365;47.464;18.976;2023-02-04T02:59:50;99406.56;;;6.29;67.16
65666;BME280;52365;47.464;18.976;2023-02-04T03:00:27;99393.72;;;6.37;67.05
65666;BME280;52365;47.464;18.976;2023-02-04T03:01:06;99405.81;;;6.28;67.05
65666;BME280;52365;47.464;18.976;2023-02-04T03:01:45;99395.41;;;6.30;67.00
65666;BME280;52365;47.464;18.976;2023-02-04T03:02:23;99402.69;;;6.43;66.47
65666;BME280;52365;47.464;18.976;2023-02-04T03:03:13;99395.03;;;6.19;66.95
65666;BME280;52365;47.464;18.976;2023-02-04T03:03:51;99393.38;;;6.35;67.43
65666;BME280;52365;47.464;18.976;2023-02-04T03:04:29;99398.00;;;6.34;67.29
65666;BME280;52365;47.464;18.976;2023-02-04T03:05:06;99405.66;;;6.45;66.85
65666;BME280;52365;47.464;18.976;2023-02-04T03:05:45;99404.53;;;6.33;66.83
65666;BME280;52365;47.464;18.976;2023-02-04T03:06:25;99392.94;;;6.36;66.81
65666;BME280;52365;47.464;18.976;2023-02-04T03:07:01;99395.19;;;6.38;66.66
65666;BME280;52365;47.464;18.976;2023-02-04T03:07:38;99405.66;;;6.45;66.63
65666;BME280;52365;47.464;18.976;2023-02-04T03:08:14;99396.31;;;6.49;66.42
65666;BME280;52365;47.464;18.976;2023-02-04T03:08:53;99397.88;;;6.38;66.75
65666;BME280;52365;47.464;18.976;2023-02-04T03:09:32;99398.75;;;6.22;66.75
65666;BME280;52365;47.464;18.976;2023-02-04T03:10:08;99398.97;;;6.27;67.07
65666;BME280;52365;47.464;18.976;2023-02-04T03:10:45;99397.31;;;6.43;66.89
65666;BME280;52365;47.464;18.976;2023-02-04T03:11:22;99399.78;;;6.50;66.74
65666;BME280;52365;47.464;18.976;2023-02-04T03:12:01;99397.53;;;6.36;67.03
65666;BME280;52365;47.464;18.976;2023-02-04T03:12:38;99385.00;;;6.45;66.76
65666;BME280;52365;47.464;18.976;2023-02-04T03:13:15;99391.87;;;6.34;67.10
65666;BME280;52365;47.464;18.976;2023-02-04T03:13:52;99400.88;;;6.27;67.23
65666;BME280;52365;47.464;18.976;2023-02-04T03:14:28;99385.91;;;6.29;67.70
65666;BME280;52365;47.464;18.976;2023-02-04T03:15:04;99381.44;;;6.14;67.56
65666;BME280;52365;47.464;18.976;2023-02-04T03:15:42;99390.41;;;6.33;67.41
65666;BME280;52365;47.464;18.976;2023-02-04T03:16:19;99394.78;;;6.26;67.52
65666;BME280;52365;47.464;18.976;2023-02-04T03:16:56;99402.78;;;6.39;67.39
65666;BME280;52365;47.464;18.976;2023-02-04T03:17:32;99384.09;;;6.26;67.43